Time,TemperatureF,DewpointF,PressureIn,WindDirection,WindDirectionDegrees,WindSpeedMPH,WindSpeedGustMPH,Humidity,HourlyPrecipIn,Conditions,Clouds,dailyrainin,SoftwareType,DateUTC
2013-06-27 00:02:00,61.9,60.0,30.04,East,82,0.0,1.0,92,0.00,,,0.00,weatherlink.com 1.10,2013-06-27 07:02:00,
2013-06-27 00:17:00,61.5,60.0,30.04,NE,49,0.0,1.0,93,0.01,,,0.01,weatherlink.com 1.10,2013-06-27 07:17:00,
2013-06-27 00:33:00,61.0,59.0,30.04,ENE,60,0.0,1.0,93,0.02,,,0.02,weatherlink.com 1.10,2013-06-27 07:33:00,
2013-06-27 00:48:00,61.0,59.0,30.04,ENE,60,0.0,0.0,93,0.03,,,0.03,weatherlink.com 1.10,2013-06-27 07:48:00,
2013-06-27 01:03:00,60.9,59.0,30.03,ENE,61,0.0,1.0,94,0.03,,,0.03,weatherlink.com 1.10,2013-06-27 08:03:00,
2013-06-27 01:18:00,60.5,59.0,30.03,ENE,63,0.0,0.0,94,0.02,,,0.03,weatherlink.com 1.10,2013-06-27 08:18:00,
2013-06-27 01:33:00,60.4,59.0,30.02,East,84,0.0,0.0,95,0.01,,,0.03,weatherlink.com 1.10,2013-06-27 08:33:00,
2013-06-27 01:48:00,60.1,59.0,30.02,East,84,0.0,0.0,95,0.00,,,0.03,weatherlink.com 1.10,2013-06-27 08:48:00,
2013-06-27 02:03:00,60.1,59.0,30.02,East,85,0.0,0.0,95,0.00,,,0.03,weatherlink.com 1.10,2013-06-27 09:03:00,
2013-06-27 02:18:00,59.8,59.0,30.02,East,84,0.0,0.0,96,0.01,,,0.04,weatherlink.com 1.10,2013-06-27 09:18:00,
2013-06-27 02:33:00,59.8,59.0,30.01,East,84,0.0,0.0,96,0.01,,,0.04,weatherlink.com 1.10,2013-06-27 09:33:00,
2013-06-27 02:48:00,59.5,58.0,30.02,ESE,111,0.0,1.0,96,0.01,,,0.04,weatherlink.com 1.10,2013-06-27 09:48:00,
2013-06-27 03:03:00,59.6,59.0,30.01,ENE,60,0.0,1.0,96,0.01,,,0.04,weatherlink.com 1.10,2013-06-27 10:03:00,
2013-06-27 03:18:00,59.6,59.0,30.01,ENE,61,0.0,1.0,96,0.00,,,0.04,weatherlink.com 1.10,2013-06-27 10:18:00,
2013-06-27 03:33:00,59.5,58.0,30.01,ENE,63,0.0,1.0,96,0.00,,,0.04,weatherlink.com 1.10,2013-06-27 10:33:00,
2013-06-27 03:48:00,59.1,58.0,30.00,ENE,67,0.0,1.0,96,0.00,,,0.04,weatherlink.com 1.10,2013-06-27 10:48:00,
2013-06-27 04:03:00,59.2,58.0,30.00,NNE,31,0.0,1.0,97,0.00,,,0.04,weatherlink.com 1.10,2013-06-27 11:03:00,
2013-06-27 04:18:00,59.1,58.0,30.00,NNE,31,0.0,0.0,97,0.00,,,0.04,weatherlink.com 1.10,2013-06-27 11:18:00,
2013-06-27 04:33:00,59.2,58.0,30.00,NNE,33,0.0,1.0,97,0.00,,,0.04,weatherlink.com 1.10,2013-06-27 11:33:00,
2013-06-27 04:48:00,59.3,59.0,30.00,NNE,33,0.0,0.0,97,0.00,,,0.04,weatherlink.com 1.10,2013-06-27 11:48:00,
2013-06-27 05:03:00,59.5,59.0,30.00,NE,44,0.0,1.0,97,0.00,,,0.04,weatherlink.com 1.10,2013-06-27 12:03:00,
2013-06-27 05:18:00,59.2,58.0,30.00,ENE,59,1.0,1.0,97,0.00,,,0.04,weatherlink.com 1.10,2013-06-27 12:18:00,
2013-06-27 05:33:00,59.6,59.0,30.01,ENE,59,0.0,0.0,97,0.00,,,0.04,weatherlink.com 1.10,2013-06-27 12:33:00,
2013-06-27 05:48:00,59.7,59.0,30.02,ENE,60,0.0,1.0,97,0.00,,,0.04,weatherlink.com 1.10,2013-06-27 12:48:00,
2013-06-27 06:03:00,59.5,59.0,30.02,NNE,15,0.0,2.0,97,0.00,,,0.04,weatherlink.com 1.10,2013-06-27 13:03:00,
2013-06-27 06:18:00,59.5,59.0,30.02,NNE,15,0.0,0.0,97,0.00,,,0.04,weatherlink.com 1.10,2013-06-27 13:18:00,
2013-06-27 06:33:00,59.4,59.0,30.02,East,82,0.0,1.0,97,0.00,,,0.04,weatherlink.com 1.10,2013-06-27 13:33:00,
2013-06-27 06:48:00,59.7,59.0,30.02,East,82,0.0,0.0,97,0.00,,,0.04,weatherlink.com 1.10,2013-06-27 13:48:00,
2013-06-27 07:03:00,59.7,59.0,30.03,SW,214,0.0,0.0,97,0.00,,,0.04,weatherlink.com 1.10,2013-06-27 14:03:00,
2013-06-27 07:18:00,60.1,59.0,30.04,West,276,0.0,0.0,97,0.00,,,0.04,weatherlink.com 1.10,2013-06-27 14:18:00,
2013-06-27 07:33:00,60.6,60.0,30.05,West,266,0.0,0.0,97,0.00,,,0.04,weatherlink.com 1.10,2013-06-27 14:33:00,
2013-06-27 07:48:00,61.0,60.0,30.05,West,263,0.0,1.0,97,0.00,,,0.04,weatherlink.com 1.10,2013-06-27 14:48:00,
2013-06-27 08:03:00,61.5,60.0,30.06,SSE,155,0.0,1.0,96,0.00,,,0.04,weatherlink.com 1.10,2013-06-27 15:03:00,
2013-06-27 08:18:00,62.4,61.0,30.06,SE,136,1.0,2.0,95,0.00,,,0.04,weatherlink.com 1.10,2013-06-27 15:18:00,
2013-06-27 08:33:00,63.3,62.0,30.07,SSW,204,0.0,1.0,94,0.00,,,0.04,weatherlink.com 1.10,2013-06-27 15:33:00,
2013-06-27 08:48:00,63.8,62.0,30.07,WSW,238,2.0,3.0,94,0.00,,,0.04,weatherlink.com 1.10,2013-06-27 15:48:00,
2013-06-27 09:03:00,64.4,62.0,30.08,SW,214,0.0,5.0,92,0.00,,,0.04,weatherlink.com 1.10,2013-06-27 16:03:00,
2013-06-27 09:18:00,64.6,61.0,30.07,South,172,1.0,4.0,88,0.00,,,0.04,weatherlink.com 1.10,2013-06-27 16:18:00,
2013-06-27 09:33:00,65.5,62.0,30.08,SSW,210,1.0,4.0,88,0.00,,,0.04,weatherlink.com 1.10,2013-06-27 16:33:00,
2013-06-27 09:48:00,65.7,62.0,30.08,SE,134,0.0,6.0,87,0.00,,,0.04,weatherlink.com 1.10,2013-06-27 16:48:00,
2013-06-27 10:03:00,66.5,62.0,30.08,SSE,168,2.0,3.0,86,0.00,,,0.04,weatherlink.com 1.10,2013-06-27 17:03:00,
2013-06-27 10:19:00,66.9,63.0,30.09,SE,143,0.0,4.0,87,0.00,,,0.04,weatherlink.com 1.10,2013-06-27 17:19:00,
2013-06-27 10:34:00,67.0,62.0,30.09,ESE,114,0.0,3.0,84,0.00,,,0.04,weatherlink.com 1.10,2013-06-27 17:34:00,
2013-06-27 10:49:00,67.3,62.0,30.09,ESE,120,0.0,7.0,83,0.00,,,0.04,weatherlink.com 1.10,2013-06-27 17:49:00,
2013-06-27 11:04:00,68.1,62.0,30.10,SSW,204,0.0,6.0,81,0.00,,,0.04,weatherlink.com 1.10,2013-06-27 18:04:00,
2013-06-27 11:19:00,68.9,63.0,30.10,South,172,2.0,8.0,80,0.00,,,0.04,weatherlink.com 1.10,2013-06-27 18:19:00,
2013-06-27 11:34:00,69.1,62.0,30.11,ESE,115,3.0,6.0,78,0.00,,,0.04,weatherlink.com 1.10,2013-06-27 18:34:00,
2013-06-27 11:49:00,69.0,62.0,30.11,South,180,4.0,5.0,78,0.00,,,0.04,weatherlink.com 1.10,2013-06-27 18:49:00,
2013-06-27 12:04:00,69.5,63.0,30.12,SSE,158,3.0,5.0,79,0.00,,,0.04,weatherlink.com 1.10,2013-06-27 19:04:00,
2013-06-27 12:19:00,69.4,63.0,30.12,SSE,155,0.0,4.0,79,0.00,,,0.04,weatherlink.com 1.10,2013-06-27 19:19:00,
2013-06-27 12:34:00,69.7,62.0,30.12,SE,136,1.0,4.0,76,0.00,,,0.04,weatherlink.com 1.10,2013-06-27 19:34:00,
2013-06-27 12:49:00,70.1,63.0,30.12,ENE,71,2.0,5.0,77,0.00,,,0.04,weatherlink.com 1.10,2013-06-27 19:49:00,
2013-06-27 13:04:00,70.5,62.0,30.12,SE,142,0.0,5.0,74,0.00,,,0.04,weatherlink.com 1.10,2013-06-27 20:04:00,
2013-06-27 13:19:00,71.1,62.0,30.13,ESE,103,3.0,3.0,73,0.00,,,0.04,weatherlink.com 1.10,2013-06-27 20:19:00,
2013-06-27 13:34:00,71.3,63.0,30.13,ESE,115,0.0,5.0,74,0.00,,,0.04,weatherlink.com 1.10,2013-06-27 20:34:00,
2013-06-27 13:49:00,71.7,63.0,30.12,ESE,102,1.0,6.0,73,0.00,,,0.04,weatherlink.com 1.10,2013-06-27 20:49:00,
2013-06-27 14:04:00,73.1,62.0,30.13,ENE,65,2.0,5.0,68,0.00,,,0.04,weatherlink.com 1.10,2013-06-27 21:04:00,
2013-06-27 14:19:00,73.0,63.0,30.13,SE,136,1.0,4.0,70,0.00,,,0.04,weatherlink.com 1.10,2013-06-27 21:19:00,
2013-06-27 14:34:00,73.1,62.0,30.13,SSE,160,1.0,5.0,69,0.00,,,0.04,weatherlink.com 1.10,2013-06-27 21:34:00,
2013-06-27 14:49:00,72.7,62.0,30.14,East,96,1.0,4.0,68,0.00,,,0.04,weatherlink.com 1.10,2013-06-27 21:49:00,
2013-06-27 15:04:00,72.4,61.0,30.14,ESE,119,0.0,2.0,67,0.00,,,0.04,weatherlink.com 1.10,2013-06-27 22:04:00,
2013-06-27 15:19:00,72.8,62.0,30.14,SE,134,0.0,2.0,70,0.00,,,0.04,weatherlink.com 1.10,2013-06-27 22:19:00,
2013-06-27 15:34:00,74.0,62.0,30.14,SW,222,1.0,2.0,67,0.00,,,0.04,weatherlink.com 1.10,2013-06-27 22:34:00,
2013-06-27 15:49:00,75.7,63.0,30.14,SSW,207,1.0,4.0,64,0.00,,,0.04,weatherlink.com 1.10,2013-06-27 22:49:00,
2013-06-27 16:04:00,75.6,63.0,30.14,SSE,160,1.0,7.0,66,0.00,,,0.04,weatherlink.com 1.10,2013-06-27 23:04:00,
2013-06-27 16:19:00,74.8,63.0,30.14,ENE,75,0.0,2.0,66,0.00,,,0.04,weatherlink.com 1.10,2013-06-27 23:19:00,
2013-06-27 16:34:00,76.1,63.0,30.15,SW,217,1.0,2.0,65,0.00,,,0.04,weatherlink.com 1.10,2013-06-27 23:34:00,
2013-06-27 16:49:00,76.1,62.0,30.14,NNW,346,2.0,3.0,62,0.00,,,0.04,weatherlink.com 1.10,2013-06-27 23:49:00,
2013-06-27 17:34:00,75.4,65.0,30.14,WNW,288,0.0,6.0,70,0.00,,,0.04,weatherlink.com 1.10,2013-06-28 00:34:00,
2013-06-27 17:50:00,75.5,65.0,30.14,West,262,2.0,5.0,70,0.00,,,0.04,weatherlink.com 1.10,2013-06-28 00:50:00,
2013-06-27 18:20:00,72.9,66.0,30.13,West,262,1.0,4.0,79,0.00,,,0.04,weatherlink.com 1.10,2013-06-28 01:20:00,
2013-06-27 18:50:00,70.9,65.0,30.14,NNW,328,1.0,8.0,81,0.00,,,0.04,weatherlink.com 1.10,2013-06-28 01:50:00,
2013-06-27 19:05:00,70.5,65.0,30.14,North,358,1.0,6.0,82,0.00,,,0.04,weatherlink.com 1.10,2013-06-28 02:05:00,
2013-06-27 19:20:00,69.9,64.0,30.14,NW,306,2.0,6.0,82,0.00,,,0.04,weatherlink.com 1.10,2013-06-28 02:20:00,
2013-06-27 20:05:00,67.9,64.0,30.14,NW,324,2.0,5.0,86,0.00,,,0.04,weatherlink.com 1.10,2013-06-28 03:05:00,
2013-06-27 20:20:00,67.2,63.0,30.14,North,9,2.0,5.0,87,0.00,,,0.04,weatherlink.com 1.10,2013-06-28 03:20:00,
2013-06-27 20:35:00,66.6,63.0,30.14,NNE,23,2.0,3.0,88,0.00,,,0.04,weatherlink.com 1.10,2013-06-28 03:35:00,
2013-06-27 20:50:00,66.1,63.0,30.14,WNW,284,2.0,2.0,89,0.00,,,0.04,weatherlink.com 1.10,2013-06-28 03:50:00,
2013-06-27 21:05:00,66.0,63.0,30.14,NNE,30,1.0,4.0,89,0.00,,,0.04,weatherlink.com 1.10,2013-06-28 04:05:00,
2013-06-27 21:20:00,65.5,63.0,30.14,NNE,32,1.0,4.0,90,0.00,,,0.04,weatherlink.com 1.10,2013-06-28 04:20:00,
2013-06-27 21:35:00,64.9,62.0,30.14,West,267,0.0,2.0,90,0.00,,,0.04,weatherlink.com 1.10,2013-06-28 04:35:00,
2013-06-27 21:50:00,64.4,62.0,30.14,WNW,288,0.0,3.0,91,0.00,,,0.04,weatherlink.com 1.10,2013-06-28 04:50:00,
2013-06-27 22:05:00,63.9,62.0,30.15,West,263,0.0,0.0,92,0.00,,,0.04,weatherlink.com 1.10,2013-06-28 05:05:00,
2013-06-27 22:20:00,63.3,61.0,30.15,NE,51,0.0,1.0,93,0.00,,,0.04,weatherlink.com 1.10,2013-06-28 05:20:00,
2013-06-27 22:35:00,62.9,61.0,30.14,NE,39,2.0,2.0,93,0.00,,,0.04,weatherlink.com 1.10,2013-06-28 05:35:00,
2013-06-27 22:50:00,62.6,61.0,30.14,NE,44,2.0,2.0,94,0.00,,,0.04,weatherlink.com 1.10,2013-06-28 05:50:00,
2013-06-27 23:05:00,62.3,61.0,30.14,ENE,65,1.0,2.0,94,0.00,,,0.04,weatherlink.com 1.10,2013-06-28 06:05:00,
2013-06-27 23:20:00,61.9,61.0,30.14,NE,39,0.0,1.0,95,0.00,,,0.04,weatherlink.com 1.10,2013-06-28 06:20:00,
2013-06-27 23:35:00,62.0,61.0,30.14,ENE,77,0.0,1.0,95,0.00,,,0.04,weatherlink.com 1.10,2013-06-28 06:35:00,
2013-06-27 23:50:00,62.2,61.0,30.13,ENE,77,0.0,1.0,95,0.00,,,0.04,weatherlink.com 1.10,2013-06-28 06:50:00,